createdAt,value
2019-05-17T00:00:19.413Z,16.00
2019-05-17T00:02:48.124Z,15.90
2019-05-17T00:05:17.700Z,15.90
2019-05-17T00:07:47.478Z,15.80
2019-05-17T00:10:17.450Z,15.70
2019-05-17T00:12:47.235Z,15.70
2019-05-17T00:15:17.261Z,15.80
2019-05-17T00:17:46.896Z,15.80
2019-05-17T00:20:17.420Z,15.80
2019-05-17T00:22:47.247Z,15.90
2019-05-17T00:25:17.292Z,15.90
2019-05-17T00:27:47.443Z,15.80
2019-05-17T00:30:17.526Z,15.70
2019-05-17T00:32:47.533Z,15.70
2019-05-17T00:35:17.804Z,15.70
2019-05-17T00:37:46.891Z,15.60
2019-05-17T00:40:17.644Z,15.60
2019-05-17T00:42:46.807Z,15.60
2019-05-17T00:45:17.657Z,15.50
2019-05-17T00:47:46.937Z,15.60
2019-05-17T00:50:17.020Z,15.60
2019-05-17T00:52:47.516Z,15.60
2019-05-17T00:55:17.570Z,15.60
2019-05-17T00:57:47.585Z,15.60
2019-05-17T01:00:17.439Z,15.60
2019-05-17T01:02:46.797Z,15.70
2019-05-17T01:05:17.362Z,15.70
2019-05-17T01:07:47.127Z,15.50
2019-05-17T01:10:17.637Z,15.40
2019-05-17T01:12:48.906Z,15.40
2019-05-17T01:15:17.995Z,15.40
2019-05-17T01:17:47.369Z,15.30
2019-05-17T01:20:17.369Z,15.30
2019-05-17T01:22:47.438Z,15.30
2019-05-17T01:25:17.232Z,15.30
2019-05-17T01:27:47.491Z,15.20
2019-05-17T01:30:17.760Z,15.00
2019-05-17T01:32:46.706Z,15.00
2019-05-17T01:35:16.754Z,15.00
2019-05-17T01:37:47.434Z,15.00
2019-05-17T01:40:17.585Z,15.00
2019-05-17T01:42:46.731Z,15.00
2019-05-17T01:45:16.819Z,15.00
2019-05-17T01:47:47.529Z,15.00
2019-05-17T01:50:17.583Z,15.10
2019-05-17T01:52:46.585Z,15.10
2019-05-17T01:55:17.394Z,15.00
2019-05-17T01:57:47.583Z,15.10
2019-05-17T02:00:17.601Z,15.10
2019-05-17T02:02:48.298Z,15.00
2019-05-17T02:05:17.528Z,15.00
2019-05-17T02:07:46.652Z,15.00
2019-05-17T02:10:16.925Z,15.00
2019-05-17T02:12:48.673Z,15.10
2019-05-17T02:15:17.085Z,15.10
2019-05-17T02:17:46.938Z,15.30
2019-05-17T02:20:17.111Z,15.30
2019-05-17T02:22:47.470Z,15.30
2019-05-17T02:25:16.921Z,15.30
2019-05-17T02:27:45.865Z,15.30
2019-05-17T02:30:15.480Z,15.20
2019-05-17T02:32:45.077Z,15.10
2019-05-17T02:35:15.013Z,15.10
2019-05-17T02:37:44.223Z,15.00
2019-05-17T02:40:14.970Z,15.00
2019-05-17T02:42:44.253Z,14.90
2019-05-17T02:45:14.062Z,14.90
2019-05-17T02:47:43.845Z,14.70
2019-05-17T02:50:13.758Z,14.60
2019-05-17T02:52:43.764Z,14.60
2019-05-17T02:55:13.467Z,14.60
2019-05-17T02:57:43.526Z,14.50
2019-05-17T03:00:14.145Z,14.50
2019-05-17T03:02:43.845Z,14.50
2019-05-17T03:05:14.449Z,14.40
2019-05-17T03:07:44.252Z,14.40
2019-05-17T03:10:24.018Z,14.40
2019-05-17T03:12:45.077Z,14.50
2019-05-17T03:15:14.724Z,14.50
2019-05-17T03:17:43.917Z,14.50
2019-05-17T03:20:13.749Z,14.50
2019-05-17T03:22:44.143Z,14.50
2019-05-17T03:25:14.475Z,14.50
2019-05-17T03:27:43.759Z,14.40
2019-05-17T03:30:18.692Z,14.40
2019-05-17T03:32:48.544Z,14.40
2019-05-17T03:35:18.179Z,14.40
2019-05-17T03:37:47.278Z,14.40
2019-05-17T03:40:30.631Z,14.40
2019-05-17T03:42:46.532Z,14.40
2019-05-17T03:45:15.837Z,14.40
2019-05-17T03:47:44.985Z,14.40
2019-05-17T03:50:14.279Z,14.40
2019-05-17T03:52:44.667Z,14.30
2019-05-17T03:55:13.972Z,14.30
2019-05-17T03:57:44.169Z,14.30
2019-05-17T04:00:14.213Z,14.20
2019-05-17T04:02:44.236Z,14.10
2019-05-17T04:05:13.596Z,14.20
2019-05-17T04:07:43.496Z,14.10
2019-05-17T04:10:15.078Z,14.10
2019-05-17T04:12:44.402Z,14.20
2019-05-17T04:15:14.127Z,14.20
2019-05-17T04:17:44.006Z,14.20
2019-05-17T04:20:14.331Z,14.20
2019-05-17T04:22:44.127Z,14.20
2019-05-17T04:25:14.024Z,14.30
2019-05-17T04:27:43.878Z,14.30
2019-05-17T04:30:13.449Z,14.30
2019-05-17T04:32:44.161Z,14.30
2019-05-17T04:35:13.627Z,14.40
2019-05-17T04:37:44.870Z,14.30
2019-05-17T04:40:14.576Z,14.30
2019-05-17T04:42:44.615Z,14.20
2019-05-17T04:45:13.895Z,14.20
2019-05-17T04:47:44.348Z,14.20
2019-05-17T04:50:14.212Z,14.10
2019-05-17T04:52:43.630Z,14.20
2019-05-17T04:55:13.774Z,14.20
2019-05-17T04:57:43.808Z,14.30
2019-05-17T05:00:14.912Z,14.40
2019-05-17T05:02:44.373Z,14.40
2019-05-17T05:05:14.164Z,14.40
2019-05-17T05:07:43.547Z,14.40
2019-05-17T05:10:14.278Z,14.30
2019-05-17T05:12:44.145Z,14.40
2019-05-17T05:15:13.701Z,14.50
2019-05-17T05:17:43.004Z,14.40
2019-05-17T05:20:13.326Z,14.50
2019-05-17T05:22:43.122Z,14.50
2019-05-17T05:25:13.066Z,14.60
2019-05-17T05:27:42.771Z,14.80
2019-05-17T05:30:12.370Z,14.80
2019-05-17T05:32:42.777Z,14.80
2019-05-17T05:35:12.950Z,14.80
2019-05-17T05:37:42.428Z,14.80
2019-05-17T05:40:12.963Z,14.80
2019-05-17T05:42:42.634Z,14.80
2019-05-17T05:45:12.556Z,14.60
2019-05-17T05:47:42.603Z,14.70
2019-05-17T05:50:12.587Z,14.80
2019-05-17T05:52:42.329Z,14.80
2019-05-17T05:55:12.657Z,14.90
2019-05-17T05:57:42.009Z,14.90
2019-05-17T06:00:13.738Z,15.00
2019-05-17T06:02:42.547Z,15.20
2019-05-17T06:05:16.479Z,15.40
2019-05-17T06:07:42.890Z,15.40
2019-05-17T06:10:13.199Z,15.50
2019-05-17T06:12:43.414Z,15.60
2019-05-17T06:15:12.978Z,15.70
2019-05-17T06:17:43.085Z,15.70
2019-05-17T06:20:12.755Z,15.90
2019-05-17T06:22:42.782Z,15.90
2019-05-17T06:25:15.201Z,16.10
2019-05-17T06:27:42.514Z,16.40
2019-05-17T06:30:13.063Z,16.50
2019-05-17T06:32:43.426Z,16.60
2019-05-17T06:35:13.341Z,16.70
2019-05-17T06:37:42.510Z,16.70
2019-05-17T06:40:13.215Z,16.70
2019-05-17T06:42:45.134Z,16.60
2019-05-17T06:45:14.294Z,16.70
2019-05-17T06:47:44.533Z,16.70
2019-05-17T06:50:14.548Z,16.90
2019-05-17T06:52:44.044Z,16.90
2019-05-17T06:55:13.422Z,16.90
2019-05-17T06:57:43.229Z,16.90
2019-05-17T07:00:19.637Z,17.00
2019-05-17T07:02:43.574Z,17.00
2019-05-17T07:05:14.249Z,17.10
2019-05-17T07:07:43.056Z,17.10
2019-05-17T07:10:12.635Z,17.20
2019-05-17T07:12:54.850Z,17.30
2019-05-17T07:15:11.857Z,17.40
2019-05-17T07:17:40.597Z,17.40
2019-05-17T07:20:10.646Z,17.40
2019-05-17T07:22:40.839Z,17.50
2019-05-17T07:25:10.997Z,17.50
2019-05-17T07:27:45.590Z,17.50
2019-05-17T07:30:12.774Z,17.40
2019-05-17T07:32:41.451Z,17.60
2019-05-17T07:35:11.105Z,17.70
2019-05-17T07:37:40.704Z,17.80
2019-05-17T07:40:12.157Z,17.80
2019-05-17T07:42:40.815Z,17.90
2019-05-17T07:45:10.465Z,18.00
2019-05-17T07:47:40.451Z,18.00
2019-05-17T07:50:11.138Z,18.00
2019-05-17T07:52:40.570Z,17.90
2019-05-17T07:55:10.789Z,17.90
2019-05-17T07:57:40.963Z,17.90
2019-05-17T08:00:13.515Z,18.00
2019-05-17T08:02:42.193Z,18.00
2019-05-17T08:05:11.196Z,18.00
2019-05-17T08:07:40.844Z,18.10
2019-05-17T08:10:10.932Z,18.30
2019-05-17T08:12:41.071Z,18.30
2019-05-17T08:15:11.194Z,18.50
2019-05-17T08:17:40.210Z,18.60
2019-05-17T08:20:10.749Z,18.90
2019-05-17T08:22:40.180Z,18.80
2019-05-17T08:25:10.499Z,18.70
2019-05-17T08:27:40.447Z,18.80
2019-05-17T08:30:10.999Z,18.90
2019-05-17T08:32:40.551Z,19.10
2019-05-17T08:35:11.146Z,19.10
2019-05-17T08:37:42.512Z,19.40
2019-05-17T08:40:14.887Z,19.50
2019-05-17T08:42:41.643Z,19.70
2019-05-17T08:45:10.969Z,19.80
2019-05-17T08:47:39.922Z,19.90
2019-05-17T08:50:11.240Z,19.90
2019-05-17T08:52:40.654Z,19.80
2019-05-17T08:55:10.089Z,19.70
2019-05-17T08:57:39.950Z,19.90
2019-05-17T09:00:10.548Z,20.20
2019-05-17T09:02:40.764Z,20.10
2019-05-17T09:05:11.838Z,20.00
2019-05-17T09:07:40.537Z,20.10
2019-05-17T09:10:10.377Z,20.40
2019-05-17T09:12:40.843Z,20.80
2019-05-17T09:15:10.646Z,20.80
2019-05-17T09:17:39.791Z,21.00
2019-05-17T09:20:10.780Z,21.20
2019-05-17T09:22:39.958Z,21.30
2019-05-17T09:25:13.629Z,21.20
2019-05-17T09:27:40.296Z,21.20
2019-05-17T09:30:10.412Z,21.10
2019-05-17T09:32:40.390Z,21.20
2019-05-17T09:35:10.493Z,21.40
2019-05-17T09:37:41.390Z,21.50
2019-05-17T09:40:10.595Z,21.50
2019-05-17T09:42:41.084Z,21.50
2019-05-17T09:45:10.169Z,21.20
2019-05-17T09:47:39.646Z,21.20
2019-05-17T09:50:10.083Z,21.30
2019-05-17T09:52:40.568Z,21.40
2019-05-17T09:55:10.420Z,21.30
2019-05-17T09:57:40.860Z,21.30
2019-05-17T10:00:11.314Z,21.00
2019-05-17T10:02:40.668Z,20.90
2019-05-17T10:05:10.667Z,20.90
2019-05-17T10:07:40.481Z,21.10
2019-05-17T10:10:10.840Z,20.90
2019-05-17T10:12:40.582Z,20.90
2019-05-17T10:15:10.379Z,21.10
2019-05-17T10:17:39.096Z,21.50
2019-05-17T10:20:10.538Z,22.20
2019-05-17T10:22:40.154Z,22.30
2019-05-17T10:25:09.965Z,22.20
2019-05-17T10:27:40.693Z,22.00
2019-05-17T10:30:10.492Z,22.20
2019-05-17T10:32:40.808Z,22.60
2019-05-17T10:35:10.385Z,23.10
2019-05-17T10:37:40.614Z,23.60
2019-05-17T10:40:10.936Z,23.70
2019-05-17T10:42:40.042Z,24.00
2019-05-17T10:45:11.179Z,23.40
2019-05-17T10:47:39.963Z,23.20
2019-05-17T10:50:10.882Z,23.70
2019-05-17T10:52:41.017Z,23.60
2019-05-17T10:55:10.933Z,23.20
2019-05-17T10:57:39.765Z,23.70
2019-05-17T11:00:10.127Z,23.70
2019-05-17T11:02:39.409Z,23.20
2019-05-17T11:05:10.546Z,22.50
2019-05-17T11:07:39.424Z,22.20
2019-05-17T11:10:12.016Z,22.70
2019-05-17T11:12:39.089Z,23.80
2019-05-17T11:15:11.468Z,24.20
2019-05-17T11:17:38.451Z,24.60
2019-05-17T11:20:08.388Z,24.20
2019-05-17T11:22:37.184Z,23.70
2019-05-17T11:25:07.025Z,23.50
2019-05-17T11:27:35.944Z,23.60
2019-05-17T11:30:06.052Z,24.10
2019-05-17T11:32:34.712Z,24.50
2019-05-17T11:35:04.399Z,24.90
2019-05-17T11:37:33.259Z,25.30
2019-05-17T11:40:01.937Z,25.50
2019-05-17T11:42:30.595Z,25.40
2019-05-17T11:44:59.307Z,25.00
2019-05-17T11:47:27.975Z,24.90
2019-05-17T11:49:56.650Z,25.70
2019-05-17T11:52:25.317Z,25.80
2019-05-17T11:54:53.975Z,26.10
2019-05-17T11:57:22.786Z,26.00
2019-05-17T11:59:51.441Z,25.40
2019-05-17T12:02:21.639Z,25.90
2019-05-17T12:04:50.454Z,26.30
2019-05-17T12:07:19.419Z,26.40
2019-05-17T12:09:48.081Z,26.60
2019-05-17T12:12:16.814Z,26.70
2019-05-17T12:14:45.468Z,26.90
2019-05-17T12:17:14.350Z,26.90
2019-05-17T12:19:43.053Z,26.90
2019-05-17T12:22:11.788Z,26.70
2019-05-17T12:24:40.729Z,25.90
2019-05-17T12:27:09.433Z,25.60
2019-05-17T12:29:38.114Z,25.10
2019-05-17T12:32:06.826Z,25.20
2019-05-17T12:34:35.481Z,25.80
2019-05-17T12:37:04.720Z,26.00
2019-05-17T12:39:33.453Z,25.80
2019-05-17T12:42:02.344Z,26.20
2019-05-17T12:44:31.075Z,26.50
2019-05-17T12:46:59.721Z,27.00
2019-05-17T12:49:28.456Z,27.20
2019-05-17T12:51:57.258Z,26.40
2019-05-17T12:54:25.990Z,26.10
2019-05-17T12:56:54.635Z,26.00
2019-05-17T12:59:23.382Z,26.30
2019-05-17T13:01:52.062Z,26.70
2019-05-17T13:04:20.762Z,26.50
2019-05-17T13:06:49.469Z,25.40
2019-05-17T13:09:18.133Z,25.80
2019-05-17T13:11:46.856Z,25.80
2019-05-17T13:14:15.451Z,25.70
2019-05-17T13:16:44.252Z,26.80
2019-05-17T13:19:12.915Z,27.40
2019-05-17T13:21:41.698Z,27.40
2019-05-17T13:24:10.365Z,27.00
2019-05-17T13:26:39.166Z,26.60
2019-05-17T13:29:09.184Z,25.80
2019-05-17T13:31:37.827Z,25.50
2019-05-17T13:34:06.629Z,25.40
2019-05-17T13:36:36.992Z,24.70
2019-05-17T13:39:07.728Z,24.70
2019-05-17T13:41:36.524Z,24.50
2019-05-17T13:44:07.052Z,24.40
2019-05-17T13:46:35.859Z,24.40
2019-05-17T13:49:04.585Z,24.40
2019-05-17T13:51:33.465Z,24.90
2019-05-17T13:54:02.119Z,24.90
2019-05-17T13:56:30.774Z,24.80
2019-05-17T13:58:59.525Z,24.50
2019-05-17T14:01:28.270Z,25.00
2019-05-17T14:03:56.924Z,25.00
2019-05-17T14:06:25.582Z,24.80
2019-05-17T14:08:54.517Z,24.80
2019-05-17T14:11:23.263Z,24.80
2019-05-17T14:13:53.487Z,25.40
2019-05-17T14:16:22.225Z,26.30
2019-05-17T14:18:50.955Z,27.50
2019-05-17T14:21:19.686Z,28.10
2019-05-17T14:23:48.384Z,28.30
2019-05-17T14:26:17.185Z,28.60
2019-05-17T14:28:45.924Z,29.00
2019-05-17T14:31:14.726Z,28.90
2019-05-17T14:33:43.485Z,28.80
2019-05-17T14:36:13.823Z,28.60
2019-05-17T14:38:42.592Z,29.20
2019-05-17T14:41:11.284Z,28.20
2019-05-17T14:43:39.962Z,28.30
2019-05-17T14:46:08.608Z,28.50
2019-05-17T14:48:37.358Z,28.30
2019-05-17T14:51:06.160Z,28.60
2019-05-17T14:53:34.844Z,28.40
2019-05-17T14:56:05.315Z,27.50
2019-05-17T14:58:34.163Z,27.10
2019-05-17T15:01:03.107Z,26.70
2019-05-17T15:03:32.106Z,26.10
2019-05-17T15:06:00.791Z,26.30
2019-05-17T15:08:29.461Z,27.40
2019-05-17T15:10:58.103Z,28.10
2019-05-17T15:13:26.837Z,28.20
2019-05-17T15:15:55.773Z,28.80
2019-05-17T15:18:24.438Z,29.50
2019-05-17T15:20:53.088Z,28.00
2019-05-17T15:23:21.804Z,26.90
2019-05-17T15:25:50.565Z,26.50
2019-05-17T15:28:19.276Z,25.90
2019-05-17T15:30:48.028Z,25.60
2019-05-17T15:33:18.845Z,25.30
2019-05-17T15:35:47.574Z,24.70
2019-05-17T15:38:16.407Z,24.20
2019-05-17T15:40:45.150Z,23.70
2019-05-17T15:43:13.795Z,23.70
2019-05-17T15:45:42.658Z,23.50
2019-05-17T15:48:11.492Z,23.60
2019-05-17T15:50:42.020Z,23.70
2019-05-17T15:53:10.655Z,23.80
2019-05-17T15:55:39.385Z,23.60
2019-05-17T15:58:10.866Z,23.20
2019-05-17T16:00:39.661Z,22.90
2019-05-17T16:03:08.469Z,22.60
2019-05-17T16:05:37.430Z,22.50
2019-05-17T16:08:06.327Z,22.70
2019-05-17T16:10:35.045Z,22.50
2019-05-17T16:13:03.818Z,22.40
2019-05-17T16:15:32.688Z,22.90
2019-05-17T16:18:04.543Z,22.80
2019-05-17T16:20:35.586Z,22.90
2019-05-17T16:23:04.055Z,23.10
2019-05-17T16:25:34.005Z,22.80
2019-05-17T16:28:02.954Z,22.80
2019-05-17T16:30:31.886Z,23.10
2019-05-17T16:33:00.618Z,23.20
2019-05-17T16:35:29.361Z,23.10
2019-05-17T16:37:58.095Z,23.30
2019-05-17T16:40:26.879Z,23.10
2019-05-17T16:42:55.596Z,23.10
2019-05-17T16:45:25.819Z,22.80
2019-05-17T16:47:54.477Z,22.70
2019-05-17T16:50:23.299Z,22.20
2019-05-17T16:53:05.502Z,22.10
2019-05-17T16:55:26.058Z,21.80
2019-05-17T16:57:54.396Z,21.60
2019-05-17T17:00:35.893Z,21.40
2019-05-17T17:03:07.949Z,21.20
2019-05-17T17:05:36.808Z,21.00
2019-05-17T17:08:06.630Z,21.00
2019-05-17T17:10:35.359Z,21.00
2019-05-17T17:13:04.426Z,21.10
2019-05-17T17:15:33.153Z,21.10
2019-05-17T17:18:02.068Z,21.10
2019-05-17T17:20:31.091Z,21.00
2019-05-17T17:22:59.861Z,20.70
2019-05-17T17:25:30.038Z,20.70
2019-05-17T17:27:58.764Z,20.60
2019-05-17T17:30:27.708Z,20.60
2019-05-17T17:32:56.496Z,20.60
2019-05-17T17:35:25.200Z,20.50
2019-05-17T17:37:53.921Z,20.40
2019-05-17T17:40:23.246Z,20.30
2019-05-17T17:42:52.013Z,20.30
2019-05-17T17:45:25.437Z,20.30
2019-05-17T17:47:54.149Z,20.30
2019-05-17T17:50:22.881Z,20.30
2019-05-17T17:52:52.271Z,20.20
2019-05-17T17:55:21.083Z,20.20
2019-05-17T17:57:50.176Z,20.10
2019-05-17T18:00:19.594Z,20.00
2019-05-17T18:02:48.362Z,19.90
2019-05-17T18:05:17.642Z,19.80
2019-05-17T18:07:46.357Z,19.80
2019-05-17T18:10:26.947Z,19.90
2019-05-17T18:12:55.666Z,20.00
2019-05-17T18:15:30.209Z,19.90
2019-05-17T18:17:58.891Z,19.70
2019-05-17T18:20:27.557Z,19.60
2019-05-17T18:22:56.462Z,19.50
2019-05-17T18:25:25.257Z,19.30
2019-05-17T18:27:53.978Z,19.30
2019-05-17T18:30:22.727Z,19.30
2019-05-17T18:32:51.442Z,19.30
2019-05-17T18:35:20.170Z,19.20
2019-05-17T18:37:49.014Z,19.10
2019-05-17T18:40:17.748Z,19.00
2019-05-17T18:42:46.542Z,18.90
2019-05-17T18:45:15.397Z,18.90
2019-05-17T18:47:44.119Z,18.80
2019-05-17T18:50:13.794Z,18.70
2019-05-17T18:52:42.526Z,18.60
2019-05-17T18:55:11.517Z,18.60
2019-05-17T18:57:40.225Z,18.60
2019-05-17T19:00:09.685Z,18.60
2019-05-17T19:02:38.414Z,18.60
2019-05-17T19:05:08.109Z,18.50
2019-05-17T19:07:36.825Z,18.40
2019-05-17T19:10:06.899Z,18.50
2019-05-17T19:12:35.640Z,18.30
2019-05-17T19:15:09.046Z,18.20
2019-05-17T19:17:37.747Z,18.20
2019-05-17T19:20:08.616Z,18.10
2019-05-17T19:22:38.797Z,18.10
2019-05-17T19:25:09.821Z,18.00
2019-05-17T19:27:38.700Z,17.90
2019-05-17T19:30:08.692Z,17.90
2019-05-17T19:32:37.516Z,17.80
2019-05-17T19:35:07.030Z,17.80
2019-05-17T19:37:35.670Z,17.80
2019-05-17T19:40:09.129Z,17.80
2019-05-17T19:42:40.870Z,17.80
2019-05-17T19:45:09.851Z,17.80
2019-05-17T19:47:38.655Z,17.90
2019-05-17T19:50:10.332Z,17.80
2019-05-17T19:52:39.182Z,17.70
2019-05-17T19:55:08.624Z,17.70
2019-05-17T19:57:37.448Z,17.70
2019-05-17T20:00:11.852Z,17.70
2019-05-17T20:02:40.496Z,17.60
2019-05-17T20:05:11.223Z,17.50
2019-05-17T20:07:39.873Z,17.40
2019-05-17T20:10:09.907Z,17.40
2019-05-17T20:12:38.834Z,17.40
2019-05-17T20:15:17.841Z,17.40
2019-05-17T20:17:43.977Z,17.40
2019-05-17T20:20:13.172Z,17.50
2019-05-17T20:22:41.844Z,17.50
2019-05-17T20:25:10.750Z,17.40
2019-05-17T20:27:39.412Z,17.40
2019-05-17T20:30:10.561Z,17.50
2019-05-17T20:32:39.406Z,17.50
2019-05-17T20:35:08.993Z,17.40
2019-05-17T20:37:37.822Z,17.30
2019-05-17T20:40:08.080Z,17.30
2019-05-17T20:42:36.746Z,17.40
2019-05-17T20:45:07.492Z,17.50
2019-05-17T20:47:39.071Z,17.40
2019-05-17T20:50:09.182Z,17.40
2019-05-17T20:52:37.969Z,17.50
2019-05-17T20:55:07.477Z,17.50
2019-05-17T20:57:36.245Z,17.40
2019-05-17T21:00:10.490Z,17.40
2019-05-17T21:02:39.168Z,17.20
2019-05-17T21:05:08.432Z,17.10
2019-05-17T21:07:37.157Z,17.10
2019-05-17T21:10:06.270Z,17.10
2019-05-17T21:12:34.927Z,17.10
2019-05-17T21:15:05.042Z,17.00
2019-05-17T21:17:33.704Z,17.00
2019-05-17T21:20:02.435Z,17.00
2019-05-17T21:22:31.175Z,17.00
2019-05-17T21:24:59.919Z,16.90
2019-05-17T21:27:28.587Z,16.90
2019-05-17T21:29:57.236Z,16.90
2019-05-17T21:32:25.895Z,17.00
2019-05-17T21:34:54.687Z,17.10
2019-05-17T21:37:23.347Z,17.10
2019-05-17T21:39:52.072Z,17.10
2019-05-17T21:42:20.763Z,17.00
2019-05-17T21:44:49.436Z,17.10
2019-05-17T21:47:18.118Z,17.10
2019-05-17T21:49:46.767Z,17.10
2019-05-17T21:52:15.439Z,17.00
2019-05-17T21:54:44.164Z,17.10
2019-05-17T21:57:12.829Z,17.00
2019-05-17T21:59:41.495Z,16.90
2019-05-17T22:02:10.235Z,16.80
2019-05-17T22:04:38.891Z,16.60
2019-05-17T22:07:07.767Z,16.40
2019-05-17T22:09:36.884Z,16.30
2019-05-17T22:12:07.315Z,16.30
2019-05-17T22:14:35.977Z,16.20
2019-05-17T22:17:04.847Z,16.20
2019-05-17T22:19:33.565Z,16.10
2019-05-17T22:22:02.410Z,16.10
2019-05-17T22:24:31.077Z,16.10
2019-05-17T22:26:59.723Z,16.10
2019-05-17T22:29:28.387Z,16.10
2019-05-17T22:31:57.035Z,16.20
2019-05-17T22:34:25.776Z,16.10
2019-05-17T22:36:54.599Z,16.00
2019-05-17T22:39:23.310Z,15.90
2019-05-17T22:41:52.136Z,15.90
2019-05-17T22:44:20.862Z,15.80
2019-05-17T22:46:49.510Z,15.80
2019-05-17T22:49:18.187Z,15.90
2019-05-17T22:51:46.898Z,15.80
2019-05-17T22:54:15.560Z,15.90
2019-05-17T22:56:44.240Z,15.90
2019-05-17T22:59:12.883Z,15.90
2019-05-17T23:01:41.597Z,15.90
2019-05-17T23:04:10.278Z,15.90
2019-05-17T23:06:38.930Z,15.80
2019-05-17T23:09:07.809Z,15.80
2019-05-17T23:11:36.614Z,15.80
2019-05-17T23:14:05.338Z,15.70
2019-05-17T23:16:34.079Z,15.70
2019-05-17T23:19:09.282Z,15.70
2019-05-17T23:21:38.396Z,15.80
2019-05-17T23:24:07.258Z,15.80
2019-05-17T23:26:36.110Z,15.80
2019-05-17T23:29:05.103Z,15.90
2019-05-17T23:31:33.918Z,15.90
2019-05-17T23:34:02.569Z,15.90
2019-05-17T23:36:31.308Z,15.80
2019-05-17T23:39:00.054Z,15.90
2019-05-17T23:41:28.726Z,16.00
2019-05-17T23:43:57.469Z,16.00
2019-05-17T23:46:26.132Z,16.00
2019-05-17T23:48:54.788Z,16.10
2019-05-17T23:51:23.440Z,16.10
2019-05-17T23:53:52.089Z,16.00
2019-05-17T23:56:20.819Z,16.00
2019-05-17T23:58:49.452Z,16.00
